createdAt,value
2019-04-22T00:01:56.933Z,9.10
2019-04-22T00:07:18.531Z,8.80
2019-04-22T00:12:22.324Z,8.80
2019-04-22T00:14:42.014Z,8.90
2019-04-22T00:17:22.046Z,8.90
2019-04-22T00:24:46.361Z,8.90
2019-04-22T00:27:26.137Z,8.70
2019-04-22T00:29:59.889Z,8.50
2019-04-22T00:34:54.774Z,8.30
2019-04-22T00:37:28.814Z,8.20
2019-04-22T00:40:03.154Z,8.20
2019-04-22T00:42:29.565Z,8.20
2019-04-22T00:45:04.984Z,8.20
2019-04-22T00:47:27.857Z,8.10
2019-04-22T00:52:28.193Z,8.00
2019-04-22T00:55:01.898Z,7.90
2019-04-22T00:57:28.054Z,8.00
2019-04-22T01:00:01.481Z,7.90
2019-04-22T01:02:27.837Z,7.80
2019-04-22T01:05:21.344Z,7.70
2019-04-22T01:07:43.409Z,7.70
2019-04-22T01:12:46.731Z,7.80
2019-04-22T01:15:23.422Z,7.80
2019-04-22T01:17:45.276Z,7.70
2019-04-22T01:20:39.077Z,7.60
2019-04-22T01:25:14.678Z,7.40
2019-04-22T01:27:41.918Z,7.40
2019-04-22T01:30:25.236Z,7.40
2019-04-22T01:32:49.367Z,7.30
2019-04-22T01:35:28.947Z,7.40
2019-04-22T01:38:01.492Z,7.40
2019-04-22T01:45:39.505Z,7.30
2019-04-22T01:48:11.183Z,7.20
2019-04-22T01:50:41.070Z,7.30
2019-04-22T01:53:11.789Z,7.40
2019-04-22T01:55:45.484Z,7.40
2019-04-22T01:58:08.548Z,7.30
2019-04-22T02:03:12.687Z,7.20
2019-04-22T02:05:46.298Z,7.20
2019-04-22T02:08:15.377Z,7.20
2019-04-22T02:10:47.754Z,7.00
2019-04-22T02:13:15.864Z,6.90
2019-04-22T02:15:47.791Z,6.80
2019-04-22T02:18:18.008Z,6.70
2019-04-22T02:20:46.269Z,6.70
2019-04-22T02:23:45.637Z,6.70
2019-04-22T02:48:53.311Z,6.30
2019-04-22T02:51:12.389Z,6.20
2019-04-22T02:58:52.293Z,6.20
2019-04-22T03:06:15.964Z,6.10
2019-04-22T03:08:41.483Z,6.10
2019-04-22T03:11:16.777Z,6.00
2019-04-22T03:21:14.658Z,5.80
2019-04-22T03:26:18.420Z,5.80
2019-04-22T03:31:27.365Z,5.90
2019-04-22T03:33:52.135Z,5.90
2019-04-22T03:36:42.815Z,5.90
2019-04-22T03:38:59.404Z,5.80
2019-04-22T03:41:15.233Z,5.80
2019-04-22T03:43:55.792Z,5.70
2019-04-22T03:46:17.094Z,5.70
2019-04-22T03:51:16.440Z,5.70
2019-04-22T03:53:38.473Z,5.70
2019-04-22T03:56:18.473Z,5.60
2019-04-22T03:58:51.133Z,5.60
2019-04-22T04:03:45.519Z,5.60
2019-04-22T04:06:17.071Z,5.60
2019-04-22T04:11:12.954Z,5.70
2019-04-22T04:13:57.945Z,5.70
2019-04-22T04:16:10.890Z,5.70
2019-04-22T04:24:01.107Z,5.80
2019-04-22T04:26:16.631Z,5.90
2019-04-22T04:28:50.982Z,6.00
2019-04-22T04:36:07.875Z,5.80
2019-04-22T04:38:45.652Z,5.60
2019-04-22T04:41:23.125Z,5.50
2019-04-22T04:44:06.184Z,5.40
2019-04-22T04:46:37.806Z,5.50
2019-04-22T04:48:56.162Z,5.70
2019-04-22T04:51:23.948Z,5.80
2019-04-22T04:53:47.546Z,6.00
2019-04-22T05:01:23.220Z,6.30
2019-04-22T05:06:12.572Z,6.50
2019-04-22T05:09:10.013Z,6.50
2019-04-22T05:11:14.275Z,6.60
2019-04-22T05:13:49.799Z,6.70
2019-04-22T05:18:47.209Z,6.80
2019-04-22T05:21:14.200Z,6.80
2019-04-22T05:26:10.829Z,6.80
2019-04-22T05:28:37.656Z,6.90
2019-04-22T05:33:45.259Z,6.80
2019-04-22T05:36:12.654Z,6.80
2019-04-22T05:38:57.607Z,6.90
2019-04-22T05:41:08.826Z,7.00
2019-04-22T05:43:41.066Z,7.10
2019-04-22T05:46:09.066Z,7.20
2019-04-22T05:48:46.668Z,7.40
2019-04-22T05:51:16.357Z,7.60
2019-04-22T05:53:42.818Z,7.80
2019-04-22T06:03:49.323Z,8.50
2019-04-22T06:06:12.685Z,8.80
2019-04-22T06:08:40.173Z,8.90
2019-04-22T06:11:16.717Z,9.10
2019-04-22T06:13:41.750Z,9.40
2019-04-22T06:16:12.984Z,10.00
2019-04-22T06:18:38.389Z,10.70
2019-04-22T06:23:46.357Z,12.10
2019-04-22T06:28:48.458Z,12.70
2019-04-22T06:33:48.458Z,13.60
2019-04-22T06:36:23.329Z,13.90
2019-04-22T06:38:53.278Z,14.50
2019-04-22T06:41:21.294Z,14.70
2019-04-22T06:43:55.972Z,15.20
2019-04-22T06:46:21.422Z,15.70
2019-04-22T06:48:48.967Z,15.90
2019-04-22T06:51:19.879Z,16.20
2019-04-22T06:53:47.801Z,17.00
2019-04-22T06:56:20.625Z,16.90
2019-04-22T06:59:06.646Z,16.90
2019-04-22T07:01:40.458Z,16.80
2019-04-22T07:06:29.578Z,16.80
2019-04-22T07:09:26.594Z,16.60
2019-04-22T07:11:18.762Z,16.60
2019-04-22T07:13:50.390Z,17.30
2019-04-22T07:16:26.212Z,17.90
2019-04-22T07:18:48.725Z,18.00
2019-04-22T07:21:20.977Z,18.40
2019-04-22T07:24:03.141Z,18.90
2019-04-22T07:26:21.957Z,18.70
2019-04-22T07:28:50.530Z,18.60
2019-04-22T07:31:20.920Z,18.00
2019-04-22T07:33:51.791Z,17.70
2019-04-22T07:41:23.106Z,18.70
2019-04-22T07:44:07.456Z,18.40
2019-04-22T07:46:18.633Z,18.80
2019-04-22T07:48:53.651Z,19.20
2019-04-22T07:51:24.966Z,20.00
2019-04-22T07:56:24.181Z,21.10
2019-04-22T08:01:20.195Z,21.50
2019-04-22T08:03:58.721Z,21.50
2019-04-22T08:06:23.377Z,21.60
2019-04-22T08:08:58.362Z,21.50
2019-04-22T08:11:37.384Z,20.70
2019-04-22T08:13:54.837Z,20.00
2019-04-22T08:16:26.241Z,20.10
2019-04-22T08:18:57.626Z,20.30
2019-04-22T08:21:22.282Z,20.20
2019-04-22T08:23:57.548Z,20.30
2019-04-22T08:26:30.469Z,20.30
2019-04-22T08:29:02.298Z,20.50
2019-04-22T08:31:28.308Z,20.90
2019-04-22T08:33:54.613Z,21.10
2019-04-22T08:36:26.294Z,21.40
2019-04-22T08:39:02.454Z,21.40
2019-04-22T08:41:34.884Z,21.30
2019-04-22T08:44:05.417Z,21.50
2019-04-22T08:49:00.756Z,21.70
2019-04-22T08:51:25.347Z,21.50
2019-04-22T08:53:59.785Z,21.80
2019-04-22T08:56:32.229Z,21.90
2019-04-22T08:59:04.746Z,21.70
2019-04-22T09:01:27.172Z,21.70
2019-04-22T09:03:58.449Z,21.80
2019-04-22T09:06:48.077Z,21.30
2019-04-22T09:09:01.923Z,21.40
2019-04-22T09:11:38.782Z,21.70
2019-04-22T09:14:04.511Z,22.00
2019-04-22T09:26:34.066Z,23.70
2019-04-22T09:28:59.817Z,24.40
2019-04-22T09:31:23.899Z,24.10
2019-04-22T09:33:53.147Z,23.30
2019-04-22T09:38:55.725Z,22.00
2019-04-22T09:41:36.098Z,22.30
2019-04-22T09:43:56.728Z,22.40
2019-04-22T09:46:39.162Z,22.90
2019-04-22T09:51:31.748Z,22.70
2019-04-22T09:54:08.878Z,22.40
2019-04-22T09:56:31.869Z,22.70
2019-04-22T09:59:02.376Z,22.80
2019-04-22T10:01:48.244Z,22.60
2019-04-22T10:04:03.710Z,22.20
2019-04-22T10:11:32.590Z,21.90
2019-04-22T10:13:59.786Z,22.10
2019-04-22T10:19:05.741Z,22.50
2019-04-22T10:21:40.682Z,22.70
2019-04-22T10:24:03.544Z,22.70
2019-04-22T10:26:33.485Z,22.90
2019-04-22T10:29:18.374Z,22.70
2019-04-22T10:31:38.218Z,22.60
2019-04-22T10:33:53.250Z,22.60
2019-04-22T10:36:07.985Z,22.60
2019-04-22T10:38:36.787Z,22.60
2019-04-22T10:41:05.473Z,22.80
2019-04-22T10:46:04.157Z,22.10
2019-04-22T10:51:01.227Z,22.20
2019-04-22T10:53:29.629Z,21.90
2019-04-22T10:55:58.775Z,21.90
2019-04-22T10:58:28.645Z,21.90
2019-04-22T11:00:58.191Z,21.80
2019-04-22T11:05:57.064Z,21.50
2019-04-22T11:13:26.161Z,21.50
2019-04-22T11:15:55.062Z,21.60
2019-04-22T11:18:23.474Z,21.60
2019-04-22T11:20:51.872Z,21.70
2019-04-22T11:25:50.060Z,21.50
2019-04-22T11:28:19.916Z,21.70
2019-04-22T11:33:18.284Z,21.90
2019-04-22T11:35:47.961Z,21.80
2019-04-22T11:38:17.273Z,21.80
2019-04-22T11:40:51.765Z,21.80
2019-04-22T11:43:16.471Z,21.90
2019-04-22T11:45:45.208Z,22.00
2019-04-22T11:48:15.305Z,22.00
2019-04-22T11:50:44.135Z,21.90
2019-04-22T11:53:13.122Z,21.90
2019-04-22T11:55:42.591Z,21.80
2019-04-22T11:58:12.705Z,21.80
2019-04-22T12:00:43.143Z,21.90
2019-04-22T12:03:12.686Z,21.70
2019-04-22T12:05:41.708Z,21.60
2019-04-22T12:08:11.262Z,21.60
2019-04-22T12:10:46.884Z,21.50
2019-04-22T12:13:10.353Z,21.50
2019-04-22T12:18:09.235Z,21.70
2019-04-22T12:20:39.211Z,21.60
2019-04-22T12:23:09.282Z,21.60
2019-04-22T12:25:46.176Z,21.60
2019-04-22T12:28:09.021Z,21.60
2019-04-22T12:30:37.649Z,21.40
2019-04-22T12:33:09.287Z,21.50
2019-04-22T12:35:36.986Z,21.50
2019-04-22T12:38:08.654Z,21.60
2019-04-22T12:40:44.736Z,21.60
2019-04-22T12:45:36.327Z,21.50
2019-04-22T12:50:35.749Z,21.60
2019-04-22T12:55:34.192Z,21.90
2019-04-22T12:58:02.962Z,22.00
2019-04-22T13:00:32.228Z,22.00
2019-04-22T13:03:01.150Z,22.10
2019-04-22T13:05:31.241Z,22.10
2019-04-22T13:08:00.147Z,22.00
2019-04-22T13:12:58.757Z,22.10
2019-04-22T13:20:26.201Z,22.10
2019-04-22T13:27:55.288Z,22.00
2019-04-22T13:32:52.684Z,22.00
2019-04-22T13:35:22.687Z,22.00
2019-04-22T13:37:53.039Z,22.00
2019-04-22T13:42:51.079Z,22.00
2019-04-22T13:45:20.062Z,22.10
2019-04-22T13:55:44.981Z,22.00
2019-04-22T13:58:03.870Z,22.00
2019-04-22T14:00:22.544Z,22.00
2019-04-22T14:02:52.888Z,21.90
2019-04-22T14:07:53.703Z,22.00
2019-04-22T14:12:49.273Z,21.90
2019-04-22T14:15:20.067Z,21.80
2019-04-22T14:17:49.230Z,21.80
2019-04-22T14:20:18.795Z,21.80
2019-04-22T14:22:48.490Z,21.80
2019-04-22T14:25:18.687Z,21.80
2019-04-22T14:27:54.381Z,21.60
2019-04-22T14:30:18.818Z,21.60
2019-04-22T14:32:47.774Z,21.60
2019-04-22T14:35:16.927Z,21.70
2019-04-22T14:38:06.318Z,21.60
2019-04-22T14:43:24.771Z,21.80
2019-04-22T14:48:28.612Z,21.80
2019-04-22T14:50:56.279Z,21.80
2019-04-22T14:58:06.853Z,21.60
2019-04-22T15:00:35.933Z,21.50
2019-04-22T15:03:05.895Z,21.40
2019-04-22T15:05:34.437Z,21.40
2019-04-22T15:08:03.319Z,21.50
2019-04-22T15:10:33.659Z,21.40
2019-04-22T15:13:03.056Z,21.50
2019-04-22T15:15:42.114Z,21.60
2019-04-22T15:20:50.202Z,21.50
2019-04-22T15:23:16.911Z,21.50
2019-04-22T15:25:46.457Z,21.50
2019-04-22T15:28:15.355Z,21.40
2019-04-22T15:30:43.884Z,21.40
2019-04-22T15:33:12.292Z,21.30
2019-04-22T15:38:11.125Z,21.30
2019-04-22T15:40:40.690Z,21.20
2019-04-22T15:43:10.865Z,21.20
2019-04-22T15:45:41.116Z,21.20
2019-04-22T15:48:10.312Z,21.20
2019-04-22T15:55:38.901Z,21.10
2019-04-22T15:58:08.031Z,21.00
2019-04-22T16:00:49.229Z,21.00
2019-04-22T16:03:09.128Z,21.00
2019-04-22T16:08:06.541Z,20.90
2019-04-22T16:10:35.632Z,20.90
2019-04-22T16:13:11.298Z,20.90
2019-04-22T16:15:34.510Z,20.80
2019-04-22T16:18:04.756Z,20.70
2019-04-22T16:20:34.364Z,20.60
2019-04-22T16:23:13.472Z,20.50
2019-04-22T16:25:45.316Z,20.40
2019-04-22T16:28:15.372Z,20.50
2019-04-22T16:30:45.522Z,20.40
2019-04-22T16:33:15.183Z,20.40
2019-04-22T16:38:14.931Z,20.30
2019-04-22T16:40:44.891Z,20.20
2019-04-22T16:43:13.636Z,20.20
2019-04-22T16:45:43.526Z,20.20
2019-04-22T16:48:13.551Z,20.10
2019-04-22T16:50:43.613Z,20.10
2019-04-22T16:53:14.193Z,20.00
2019-04-22T16:55:46.624Z,19.90
2019-04-22T16:58:16.640Z,19.90
2019-04-22T17:00:46.960Z,19.80
2019-04-22T17:03:18.475Z,19.80
2019-04-22T17:05:51.804Z,19.70
2019-04-22T17:10:51.646Z,19.60
2019-04-22T17:13:24.741Z,19.50
2019-04-22T17:15:51.420Z,19.40
2019-04-22T17:18:21.349Z,19.40
2019-04-22T17:20:50.772Z,19.30
2019-04-22T17:25:48.651Z,19.20
2019-04-22T17:28:17.476Z,19.10
2019-04-22T17:30:46.034Z,19.10
2019-04-22T17:36:03.698Z,19.00
2019-04-22T17:38:43.788Z,18.90
2019-04-22T17:46:36.015Z,18.50
2019-04-22T17:49:17.024Z,18.40
2019-04-22T17:51:49.315Z,18.40
2019-04-22T17:54:15.250Z,18.30
2019-04-22T17:56:45.210Z,18.30
2019-04-22T17:59:17.165Z,18.20
2019-04-22T18:09:14.118Z,17.80
2019-04-22T18:11:48.220Z,17.70
2019-04-22T18:16:47.630Z,17.70
2019-04-22T18:19:15.442Z,17.60
2019-04-22T18:21:42.307Z,17.60
2019-04-22T18:24:06.834Z,17.50
2019-04-22T18:26:43.481Z,17.50
2019-04-22T18:29:20.982Z,17.40
2019-04-22T18:31:35.618Z,17.30
2019-04-22T18:34:10.230Z,17.30
2019-04-22T18:36:40.476Z,17.20
2019-04-22T18:39:37.340Z,17.20
2019-04-22T18:41:46.725Z,17.10
2019-04-22T18:44:16.876Z,17.00
2019-04-22T18:46:44.618Z,16.90
2019-04-22T18:49:12.407Z,16.80
2019-04-22T18:51:46.672Z,16.70
2019-04-22T18:54:30.868Z,16.70
2019-04-22T18:57:07.145Z,16.50
2019-04-22T18:59:20.125Z,16.40
2019-04-22T19:01:43.908Z,16.30
2019-04-22T19:04:19.341Z,16.20
2019-04-22T19:07:03.594Z,16.10
2019-04-22T19:09:45.346Z,16.10
2019-04-22T19:12:18.032Z,16.10
2019-04-22T19:14:57.033Z,16.10
2019-04-22T19:20:06.284Z,16.00
2019-04-22T19:22:29.920Z,16.00
2019-04-22T19:24:54.755Z,16.00
2019-04-22T19:27:24.856Z,16.00
2019-04-22T19:29:57.839Z,16.00
2019-04-22T19:34:55.563Z,15.90
2019-04-22T19:37:42.486Z,15.80
2019-04-22T19:45:14.749Z,15.80
2019-04-22T19:47:51.563Z,15.90
2019-04-22T19:50:16.281Z,15.80
2019-04-22T19:52:44.578Z,15.60
2019-04-22T19:55:16.891Z,15.50
2019-04-22T19:57:43.354Z,15.50
2019-04-22T20:00:18.375Z,15.50
2019-04-22T20:05:47.575Z,15.50
2019-04-22T20:08:17.489Z,15.40
2019-04-22T20:10:47.090Z,15.30
2019-04-22T20:13:21.016Z,15.30
2019-04-22T20:15:37.468Z,15.40
2019-04-22T20:18:27.084Z,15.40
2019-04-22T20:20:49.071Z,15.40
2019-04-22T20:23:09.874Z,15.40
2019-04-22T20:25:40.737Z,15.30
2019-04-22T20:28:19.382Z,15.30
2019-04-22T20:30:46.219Z,15.20
2019-04-22T20:33:18.316Z,15.20
2019-04-22T20:35:51.950Z,15.10
2019-04-22T20:38:19.979Z,15.10
2019-04-22T20:40:47.467Z,15.10
2019-04-22T20:43:21.745Z,15.00
2019-04-22T20:45:46.194Z,14.90
2019-04-22T20:48:07.865Z,14.80
2019-04-22T20:50:48.139Z,14.80
2019-04-22T20:55:48.457Z,14.90
2019-04-22T20:58:21.147Z,14.80
2019-04-22T21:00:40.643Z,14.80
2019-04-22T21:05:40.172Z,14.70
2019-04-22T21:08:19.007Z,14.60
2019-04-22T21:11:04.220Z,14.50
2019-04-22T21:13:33.012Z,14.50
2019-04-22T21:16:09.327Z,14.40
2019-04-22T21:18:30.494Z,14.30
2019-04-22T21:21:07.201Z,14.30
2019-04-22T21:23:30.791Z,14.20
2019-04-22T21:26:24.038Z,14.20
2019-04-22T21:28:53.852Z,14.20
2019-04-22T21:31:33.330Z,14.10
2019-04-22T21:33:59.160Z,14.10
2019-04-22T21:38:57.869Z,14.00
2019-04-22T21:43:58.036Z,13.90
2019-04-22T21:46:30.401Z,13.90
2019-04-22T21:48:59.777Z,13.80
2019-04-22T21:51:31.178Z,13.70
2019-04-22T21:54:06.277Z,13.70
2019-04-22T21:59:02.056Z,13.60
2019-04-22T22:04:15.297Z,13.60
2019-04-22T22:09:15.673Z,13.60
2019-04-22T22:11:40.029Z,13.50
2019-04-22T22:14:11.670Z,13.50
2019-04-22T22:24:20.697Z,13.30
2019-04-22T22:26:46.250Z,13.20
2019-04-22T22:29:24.340Z,13.10
2019-04-22T22:31:47.312Z,13.00
2019-04-22T22:34:19.095Z,13.00
2019-04-22T22:36:36.713Z,12.90
2019-04-22T22:46:31.937Z,12.70
2019-04-22T22:49:20.447Z,12.60
2019-04-22T22:54:17.615Z,12.60
2019-04-22T22:56:51.078Z,12.60
2019-04-22T22:59:18.101Z,12.50
2019-04-22T23:01:46.801Z,12.50
2019-04-22T23:04:16.200Z,12.50
2019-04-22T23:06:46.839Z,12.40
2019-04-22T23:11:57.581Z,12.30
2019-04-22T23:14:14.489Z,12.30
2019-04-22T23:16:33.633Z,12.30
2019-04-22T23:19:02.803Z,12.20
2019-04-22T23:24:21.446Z,12.20
2019-04-22T23:29:24.875Z,12.10
2019-04-22T23:35:00.310Z,12.10
2019-04-22T23:37:29.233Z,12.10
2019-04-22T23:42:35.939Z,12.00
2019-04-22T23:45:11.746Z,12.00
2019-04-22T23:47:29.877Z,12.00
2019-04-22T23:50:02.603Z,11.90
2019-04-22T23:52:37.763Z,11.90
2019-04-22T23:55:08.862Z,11.80
2019-04-22T23:57:42.128Z,11.70
